sensor_id;sensor_type;location;lat;lon;timestamp;pressure;altitude;pressure_sealevel;temperature;humidity
15670;BME280;18524;45.190;5.732;2024-03-08T00:02:11;98742.25;;;8.88;76.19
15670;BME280;18524;45.190;5.732;2024-03-08T00:07:01;98742.84;;;8.91;75.00
15670;BME280;18524;45.190;5.732;2024-03-08T00:11:51;98743.44;;;8.84;76.00
15670;BME280;18524;45.190;5.732;2024-03-08T00:16:42;98748.69;;;8.84;76.17
15670;BME280;18524;45.190;5.732;2024-03-08T00:21:33;98741.22;;;8.68;77.35
15670;BME280;18524;45.190;5.732;2024-03-08T00:26:24;98731.84;;;8.54;78.37
15670;BME280;18524;45.190;5.732;2024-03-08T00:31:14;98739.16;;;8.83;79.86
15670;BME280;18524;45.190;5.732;2024-03-08T00:36:07;98735.78;;;8.60;78.71
15670;BME280;18524;45.190;5.732;2024-03-08T00:40:58;98727.00;;;8.50;78.87
15670;BME280;18524;45.190;5.732;2024-03-08T00:45:48;98715.94;;;8.24;80.03
15670;BME280;18524;45.190;5.732;2024-03-08T00:50:38;98710.59;;;8.03;81.30
15670;BME280;18524;45.190;5.732;2024-03-08T00:55:29;98711.38;;;7.70;83.68
15670;BME280;18524;45.190;5.732;2024-03-08T01:00:19;98704.38;;;7.59;84.75
15670;BME280;18524;45.190;5.732;2024-03-08T01:05:11;98693.44;;;7.54;84.65
15670;BME280;18524;45.190;5.732;2024-03-08T01:10:05;98688.66;;;7.37;85.92
15670;BME280;18524;45.190;5.732;2024-03-08T01:15:01;98678.19;;;7.26;87.11
15670;BME280;18524;45.190;5.732;2024-03-08T01:19:52;98683.63;;;7.22;88.32
15670;BME280;18524;45.190;5.732;2024-03-08T01:24:43;98686.34;;;7.10;89.60
15670;BME280;18524;45.190;5.732;2024-03-08T01:29:33;98685.28;;;6.88;91.48
15670;BME280;18524;45.190;5.732;2024-03-08T01:34:24;98672.22;;;6.77;93.50
15670;BME280;18524;45.190;5.732;2024-03-08T01:39:14;98670.31;;;6.79;94.10
15670;BME280;18524;45.190;5.732;2024-03-08T01:44:05;98661.19;;;6.74;94.28
15670;BME280;18524;45.190;5.732;2024-03-08T01:48:57;98665.00;;;6.81;93.72
15670;BME280;18524;45.190;5.732;2024-03-08T01:53:48;98644.72;;;7.08;92.94
15670;BME280;18524;45.190;5.732;2024-03-08T01:58:41;98646.22;;;7.00;93.24
15670;BME280;18524;45.190;5.732;2024-03-08T02:03:35;98651.06;;;6.93;94.53
15670;BME280;18524;45.190;5.732;2024-03-08T02:08:25;98625.47;;;6.98;93.82
15670;BME280;18524;45.190;5.732;2024-03-08T02:13:16;98625.06;;;6.80;95.63
15670;BME280;18524;45.190;5.732;2024-03-08T02:18:06;98622.44;;;6.69;98.25
15670;BME280;18524;45.190;5.732;2024-03-08T02:22:57;98618.25;;;6.67;98.75
15670;BME280;18524;45.190;5.732;2024-03-08T02:27:47;98594.69;;;6.68;99.85
15670;BME280;18524;45.190;5.732;2024-03-08T02:32:37;98594.53;;;6.58;100.00
15670;BME280;18524;45.190;5.732;2024-03-08T02:37:28;98584.25;;;6.68;100.00
15670;BME280;18524;45.190;5.732;2024-03-08T02:42:18;98590.53;;;6.66;99.67
15670;BME280;18524;45.190;5.732;2024-03-08T02:47:08;98589.00;;;6.39;100.00
15670;BME280;18524;45.190;5.732;2024-03-08T02:51:59;98588.41;;;6.36;100.00
15670;BME280;18524;45.190;5.732;2024-03-08T02:56:49;98581.34;;;6.25;100.00
15670;BME280;18524;45.190;5.732;2024-03-08T03:01:43;98567.56;;;6.36;100.00
15670;BME280;18524;45.190;5.732;2024-03-08T03:06:33;98570.59;;;6.53;100.00
15670;BME280;18524;45.190;5.732;2024-03-08T03:11:24;98566.91;;;6.45;100.00
15670;BME280;18524;45.190;5.732;2024-03-08T03:16:20;98559.31;;;6.18;100.00
15670;BME280;18524;45.190;5.732;2024-03-08T03:21:11;98547.22;;;6.17;100.00
15670;BME280;18524;45.190;5.732;2024-03-08T03:26:03;98548.16;;;6.16;100.00
15670;BME280;18524;45.190;5.732;2024-03-08T03:30:53;98541.63;;;6.10;100.00
15670;BME280;18524;45.190;5.732;2024-03-08T03:35:44;98533.44;;;6.27;100.00
15670;BME280;18524;45.190;5.732;2024-03-08T03:40:34;98529.56;;;6.09;100.00
15670;BME280;18524;45.190;5.732;2024-03-08T03:45:25;98527.06;;;6.08;100.00
15670;BME280;18524;45.190;5.732;2024-03-08T03:50:16;98520.31;;;6.05;100.00
15670;BME280;18524;45.190;5.732;2024-03-08T03:55:06;98522.09;;;6.05;100.00
15670;BME280;18524;45.190;5.732;2024-03-08T03:59:58;98508.03;;;6.07;100.00
15670;BME280;18524;45.190;5.732;2024-03-08T04:04:48;98511.91;;;6.02;100.00
15670;BME280;18524;45.190;5.732;2024-03-08T04:09:39;98509.63;;;5.97;100.00
15670;BME280;18524;45.190;5.732;2024-03-08T04:14:29;98514.94;;;5.95;100.00
15670;BME280;18524;45.190;5.732;2024-03-08T04:19:20;98506.63;;;5.90;100.00
15670;BME280;18524;45.190;5.732;2024-03-08T04:24:10;98504.31;;;5.99;100.00
15670;BME280;18524;45.190;5.732;2024-03-08T04:29:00;98500.31;;;6.06;100.00
15670;BME280;18524;45.190;5.732;2024-03-08T04:33:51;98485.69;;;5.92;100.00
15670;BME280;18524;45.190;5.732;2024-03-08T04:38:41;98499.63;;;5.91;100.00
15670;BME280;18524;45.190;5.732;2024-03-08T04:43:33;98485.53;;;6.06;100.00
15670;BME280;18524;45.190;5.732;2024-03-08T04:48:23;98481.28;;;6.05;100.00
15670;BME280;18524;45.190;5.732;2024-03-08T04:53:13;98486.81;;;6.01;100.00
15670;BME280;18524;45.190;5.732;2024-03-08T04:58:05;98476.53;;;5.86;100.00
15670;BME280;18524;45.190;5.732;2024-03-08T05:02:58;98478.41;;;5.97;100.00
15670;BME280;18524;45.190;5.732;2024-03-08T05:07:48;98470.91;;;5.92;100.00
15670;BME280;18524;45.190;5.732;2024-03-08T05:12:39;98472.09;;;5.76;100.00
15670;BME280;18524;45.190;5.732;2024-03-08T05:17:29;98464.41;;;5.74;100.00
15670;BME280;18524;45.190;5.732;2024-03-08T05:22:20;98463.56;;;5.74;100.00
15670;BME280;18524;45.190;5.732;2024-03-08T05:27:10;98455.31;;;5.80;100.00
15670;BME280;18524;45.190;5.732;2024-03-08T05:32:01;98464.75;;;5.70;100.00
15670;BME280;18524;45.190;5.732;2024-03-08T05:36:52;98444.75;;;5.70;100.00
15670;BME280;18524;45.190;5.732;2024-03-08T05:41:44;98444.03;;;5.68;100.00
15670;BME280;18524;45.190;5.732;2024-03-08T05:46:36;98450.22;;;5.54;100.00
15670;BME280;18524;45.190;5.732;2024-03-08T05:51:27;98447.19;;;5.60;100.00
15670;BME280;18524;45.190;5.732;2024-03-08T05:56:17;98451.84;;;5.68;100.00
15670;BME280;18524;45.190;5.732;2024-03-08T06:01:08;98459.31;;;5.73;100.00
15670;BME280;18524;45.190;5.732;2024-03-08T06:05:58;98458.03;;;5.78;100.00
15670;BME280;18524;45.190;5.732;2024-03-08T06:10:49;98452.94;;;5.77;100.00
15670;BME280;18524;45.190;5.732;2024-03-08T06:15:42;98458.94;;;5.66;100.00
15670;BME280;18524;45.190;5.732;2024-03-08T06:20:33;98452.38;;;5.84;100.00
15670;BME280;18524;45.190;5.732;2024-03-08T06:25:23;98456.03;;;5.82;100.00
15670;BME280;18524;45.190;5.732;2024-03-08T06:30:13;98446.91;;;5.76;100.00
15670;BME280;18524;45.190;5.732;2024-03-08T06:35:06;98456.53;;;6.00;100.00
15670;BME280;18524;45.190;5.732;2024-03-08T06:39:57;98454.88;;;5.86;100.00
15670;BME280;18524;45.190;5.732;2024-03-08T06:44:47;98453.22;;;5.85;100.00
15670;BME280;18524;45.190;5.732;2024-03-08T06:49:43;98450.31;;;5.89;100.00
15670;BME280;18524;45.190;5.732;2024-03-08T06:54:34;98449.75;;;5.73;100.00
15670;BME280;18524;45.190;5.732;2024-03-08T06:59:26;98446.34;;;5.84;100.00
15670;BME280;18524;45.190;5.732;2024-03-08T07:04:16;98434.88;;;5.99;100.00
15670;BME280;18524;45.190;5.732;2024-03-08T07:09:07;98430.00;;;5.94;100.00
15670;BME280;18524;45.190;5.732;2024-03-08T07:13:57;98430.75;;;5.84;100.00
15670;BME280;18524;45.190;5.732;2024-03-08T07:18:48;98423.66;;;5.99;100.00
15670;BME280;18524;45.190;5.732;2024-03-08T07:23:42;98427.00;;;6.12;100.00
15670;BME280;18524;45.190;5.732;2024-03-08T07:28:43;98422.03;;;6.09;100.00
15670;BME280;18524;45.190;5.732;2024-03-08T07:33:33;98417.09;;;6.28;100.00
15670;BME280;18524;45.190;5.732;2024-03-08T07:38:24;98420.63;;;6.73;100.00
15670;BME280;18524;45.190;5.732;2024-03-08T07:43:14;98410.56;;;6.91;100.00
15670;BME280;18524;45.190;5.732;2024-03-08T07:48:05;98392.66;;;6.86;100.00
15670;BME280;18524;45.190;5.732;2024-03-08T07:53:03;98395.72;;;7.03;99.38
15670;BME280;18524;45.190;5.732;2024-03-08T07:57:53;98389.25;;;7.08;99.86
15670;BME280;18524;45.190;5.732;2024-03-08T08:02:45;98382.91;;;7.33;97.74
15670;BME280;18524;45.190;5.732;2024-03-08T08:07:39;98381.13;;;7.45;96.11
15670;BME280;18524;45.190;5.732;2024-03-08T08:12:33;98368.56;;;7.71;93.42
15670;BME280;18524;45.190;5.732;2024-03-08T08:17:24;98358.94;;;7.71;92.89
15670;BME280;18524;45.190;5.732;2024-03-08T08:22:15;98334.91;;;7.89;92.92
15670;BME280;18524;45.190;5.732;2024-03-08T08:27:05;98324.69;;;7.65;93.67
15670;BME280;18524;45.190;5.732;2024-03-08T08:31:58;98335.34;;;7.73;92.04
15670;BME280;18524;45.190;5.732;2024-03-08T08:36:49;98330.00;;;7.42;95.46
15670;BME280;18524;45.190;5.732;2024-03-08T08:41:39;98323.56;;;7.58;94.83
15670;BME280;18524;45.190;5.732;2024-03-08T08:46:31;98334.28;;;7.96;91.62
15670;BME280;18524;45.190;5.732;2024-03-08T08:51:22;98333.00;;;8.32;87.45
15670;BME280;18524;45.190;5.732;2024-03-08T08:56:13;98329.91;;;8.69;83.38
15670;BME280;18524;45.190;5.732;2024-03-08T09:01:04;98323.25;;;8.95;79.61
15670;BME280;18524;45.190;5.732;2024-03-08T09:05:55;98305.09;;;8.94;80.56
15670;BME280;18524;45.190;5.732;2024-03-08T09:10:46;98290.03;;;8.86;79.89
15670;BME280;18524;45.190;5.732;2024-03-08T09:15:38;98286.69;;;9.24;78.04
15670;BME280;18524;45.190;5.732;2024-03-08T09:20:30;98256.94;;;9.54;75.27
15670;BME280;18524;45.190;5.732;2024-03-08T09:25:21;98259.84;;;9.70;72.84
15670;BME280;18524;45.190;5.732;2024-03-08T09:30:12;98240.84;;;10.15;71.07
15670;BME280;18524;45.190;5.732;2024-03-08T09:35:03;98225.44;;;10.02;70.75
15670;BME280;18524;45.190;5.732;2024-03-08T09:39:57;98232.81;;;9.80;70.50
15670;BME280;18524;45.190;5.732;2024-03-08T09:44:49;98232.81;;;9.80;70.78
15670;BME280;18524;45.190;5.732;2024-03-08T09:49:40;98212.50;;;9.91;68.90
15670;BME280;18524;45.190;5.732;2024-03-08T09:54:31;98212.06;;;10.06;68.76
15670;BME280;18524;45.190;5.732;2024-03-08T09:59:21;98201.16;;;10.10;68.15
15670;BME280;18524;45.190;5.732;2024-03-08T10:04:18;98185.16;;;9.76;69.47
15670;BME280;18524;45.190;5.732;2024-03-08T10:09:08;98193.94;;;9.85;69.06
15670;BME280;18524;45.190;5.732;2024-03-08T10:14:00;98185.41;;;9.83;69.75
15670;BME280;18524;45.190;5.732;2024-03-08T10:18:51;98195.38;;;10.07;67.39
15670;BME280;18524;45.190;5.732;2024-03-08T10:23:44;98175.78;;;10.20;66.29
15670;BME280;18524;45.190;5.732;2024-03-08T10:28:35;98181.84;;;10.21;66.60
15670;BME280;18524;45.190;5.732;2024-03-08T10:33:25;98179.66;;;10.44;64.99
15670;BME280;18524;45.190;5.732;2024-03-08T10:38:19;98165.91;;;10.42;63.97
15670;BME280;18524;45.190;5.732;2024-03-08T10:43:23;98151.91;;;10.51;63.86
15670;BME280;18524;45.190;5.732;2024-03-08T10:48:31;98142.22;;;10.51;61.79
15670;BME280;18524;45.190;5.732;2024-03-08T10:53:23;98152.88;;;10.68;60.94
15670;BME280;18524;45.190;5.732;2024-03-08T10:58:15;98154.84;;;11.01;60.15
15670;BME280;18524;45.190;5.732;2024-03-08T11:03:06;98142.69;;;11.00;59.92
15670;BME280;18524;45.190;5.732;2024-03-08T11:07:56;98136.72;;;10.90;59.87
15670;BME280;18524;45.190;5.732;2024-03-08T11:12:47;98135.22;;;10.87;59.65
15670;BME280;18524;45.190;5.732;2024-03-08T11:22:30;98109.63;;;11.25;59.04
15670;BME280;18524;45.190;5.732;2024-03-08T11:27:28;98104.97;;;11.45;58.26
15670;BME280;18524;45.190;5.732;2024-03-08T11:32:19;98117.94;;;11.46;58.10
15670;BME280;18524;45.190;5.732;2024-03-08T11:37:13;98104.47;;;11.41;56.86
15670;BME280;18524;45.190;5.732;2024-03-08T11:42:05;98094.44;;;11.63;57.16
15670;BME280;18524;45.190;5.732;2024-03-08T11:46:55;98065.28;;;11.74;57.47
15670;BME280;18524;45.190;5.732;2024-03-08T11:51:46;98070.78;;;11.88;57.90
15670;BME280;18524;45.190;5.732;2024-03-08T11:56:37;98044.47;;;11.80;58.65
15670;BME280;18524;45.190;5.732;2024-03-08T12:01:28;98023.72;;;11.69;60.40
15670;BME280;18524;45.190;5.732;2024-03-08T12:06:18;98006.78;;;11.55;60.46
15670;BME280;18524;45.190;5.732;2024-03-08T12:11:08;97992.28;;;11.51;61.46
15670;BME280;18524;45.190;5.732;2024-03-08T12:16:02;98001.38;;;11.57;59.71
15670;BME280;18524;45.190;5.732;2024-03-08T12:21:07;97971.81;;;11.55;60.21
15670;BME280;18524;45.190;5.732;2024-03-08T12:31:03;97969.00;;;11.91;59.08
15670;BME280;18524;45.190;5.732;2024-03-08T12:35:55;97952.72;;;11.87;57.61
15670;BME280;18524;45.190;5.732;2024-03-08T12:40:48;97932.06;;;11.92;58.24
15670;BME280;18524;45.190;5.732;2024-03-08T12:45:38;97933.22;;;12.14;57.77
15670;BME280;18524;45.190;5.732;2024-03-08T12:50:29;97938.47;;;12.14;57.35
15670;BME280;18524;45.190;5.732;2024-03-08T12:55:20;97951.13;;;12.18;57.22
15670;BME280;18524;45.190;5.732;2024-03-08T13:00:11;97954.75;;;12.17;57.72
15670;BME280;18524;45.190;5.732;2024-03-08T13:05:09;97945.72;;;12.20;57.70
15670;BME280;18524;45.190;5.732;2024-03-08T13:10:00;97951.50;;;12.32;58.06
15670;BME280;18524;45.190;5.732;2024-03-08T13:14:51;97934.41;;;12.28;58.46
15670;BME280;18524;45.190;5.732;2024-03-08T13:19:41;97938.69;;;12.29;59.29
15670;BME280;18524;45.190;5.732;2024-03-08T13:24:32;97938.16;;;12.25;59.99
15670;BME280;18524;45.190;5.732;2024-03-08T13:29:24;97929.28;;;12.26;60.57
15670;BME280;18524;45.190;5.732;2024-03-08T13:34:14;97936.53;;;12.32;60.35
15670;BME280;18524;45.190;5.732;2024-03-08T13:39:05;97940.94;;;12.15;60.86
15670;BME280;18524;45.190;5.732;2024-03-08T13:44:05;97938.50;;;12.30;60.53
15670;BME280;18524;45.190;5.732;2024-03-08T13:49:04;97927.66;;;12.33;60.21
15670;BME280;18524;45.190;5.732;2024-03-08T13:53:59;97935.56;;;12.33;60.26
15670;BME280;18524;45.190;5.732;2024-03-08T13:58:56;97934.72;;;12.41;60.37
15670;BME280;18524;45.190;5.732;2024-03-08T14:03:47;97914.00;;;12.46;60.41
15670;BME280;18524;45.190;5.732;2024-03-08T14:08:38;97918.94;;;12.49;58.31
15670;BME280;18524;45.190;5.732;2024-03-08T14:13:28;97930.91;;;12.60;56.55
15670;BME280;18524;45.190;5.732;2024-03-08T14:18:18;97932.72;;;12.75;56.68
15670;BME280;18524;45.190;5.732;2024-03-08T14:23:09;97902.59;;;12.86;56.56
15670;BME280;18524;45.190;5.732;2024-03-08T14:27:59;97904.59;;;12.84;56.27
15670;BME280;18524;45.190;5.732;2024-03-08T14:32:54;97911.78;;;12.98;56.05
15670;BME280;18524;45.190;5.732;2024-03-08T14:37:44;97913.28;;;13.01;56.07
15670;BME280;18524;45.190;5.732;2024-03-08T14:42:34;97911.09;;;13.12;56.08
15670;BME280;18524;45.190;5.732;2024-03-08T14:47:25;97906.69;;;13.05;56.53
15670;BME280;18524;45.190;5.732;2024-03-08T14:52:15;97896.44;;;13.18;55.95
15670;BME280;18524;45.190;5.732;2024-03-08T14:57:24;97889.13;;;13.36;55.50
15670;BME280;18524;45.190;5.732;2024-03-08T15:02:15;97879.59;;;13.35;55.42
15670;BME280;18524;45.190;5.732;2024-03-08T15:07:07;97884.59;;;13.22;56.28
15670;BME280;18524;45.190;5.732;2024-03-08T15:11:59;97885.03;;;13.34;55.95
15670;BME280;18524;45.190;5.732;2024-03-08T15:16:50;97879.59;;;13.35;56.14
15670;BME280;18524;45.190;5.732;2024-03-08T15:21:41;97875.34;;;13.26;56.55
15670;BME280;18524;45.190;5.732;2024-03-08T15:26:34;97870.94;;;13.19;57.53
15670;BME280;18524;45.190;5.732;2024-03-08T15:31:25;97877.34;;;13.24;58.41
15670;BME280;18524;45.190;5.732;2024-03-08T15:36:16;97884.06;;;13.27;60.33
15670;BME280;18524;45.190;5.732;2024-03-08T15:41:07;97871.06;;;13.25;61.97
15670;BME280;18524;45.190;5.732;2024-03-08T15:46:00;97878.16;;;13.17;64.18
15670;BME280;18524;45.190;5.732;2024-03-08T15:50:54;97892.66;;;13.21;63.29
15670;BME280;18524;45.190;5.732;2024-03-08T15:55:44;97881.78;;;13.15;67.05
15670;BME280;18524;45.190;5.732;2024-03-08T16:00:36;97893.53;;;12.97;68.21
15670;BME280;18524;45.190;5.732;2024-03-08T16:05:34;97895.19;;;12.90;70.27
15670;BME280;18524;45.190;5.732;2024-03-08T16:10:25;97903.75;;;12.92;70.46
15670;BME280;18524;45.190;5.732;2024-03-08T16:15:15;97908.41;;;12.73;75.10
15670;BME280;18524;45.190;5.732;2024-03-08T16:20:06;97916.63;;;12.70;75.44
15670;BME280;18524;45.190;5.732;2024-03-08T16:25:01;97917.78;;;12.68;79.73
15670;BME280;18524;45.190;5.732;2024-03-08T16:29:54;97911.34;;;12.62;82.08
15670;BME280;18524;45.190;5.732;2024-03-08T16:34:45;97920.25;;;12.53;81.84
15670;BME280;18524;45.190;5.732;2024-03-08T16:39:35;97921.06;;;12.53;84.12
15670;BME280;18524;45.190;5.732;2024-03-08T16:44:25;97928.00;;;12.38;81.09
15670;BME280;18524;45.190;5.732;2024-03-08T16:49:17;97939.31;;;12.39;83.32
15670;BME280;18524;45.190;5.732;2024-03-08T16:54:07;97935.72;;;12.40;86.69
15670;BME280;18524;45.190;5.732;2024-03-08T16:58:58;97929.31;;;12.34;90.16
15670;BME280;18524;45.190;5.732;2024-03-08T17:03:48;97930.13;;;12.35;93.31
15670;BME280;18524;45.190;5.732;2024-03-08T17:08:39;97938.81;;;12.19;95.42
15670;BME280;18524;45.190;5.732;2024-03-08T17:13:30;97947.34;;;12.13;87.27
15670;BME280;18524;45.190;5.732;2024-03-08T17:18:21;97955.06;;;12.14;94.69
15670;BME280;18524;45.190;5.732;2024-03-08T17:23:13;97959.34;;;12.15;97.48
15670;BME280;18524;45.190;5.732;2024-03-08T17:28:05;97965.44;;;12.24;93.84
15670;BME280;18524;45.190;5.732;2024-03-08T17:32:58;97980.09;;;12.27;100.00
15670;BME280;18524;45.190;5.732;2024-03-08T17:37:50;97991.53;;;12.17;100.00
15670;BME280;18524;45.190;5.732;2024-03-08T17:42:41;98021.28;;;12.18;100.00
15670;BME280;18524;45.190;5.732;2024-03-08T17:47:32;98011.41;;;12.04;100.00
15670;BME280;18524;45.190;5.732;2024-03-08T17:52:23;98014.03;;;12.04;100.00
15670;BME280;18524;45.190;5.732;2024-03-08T17:57:14;98029.44;;;11.99;100.00
15670;BME280;18524;45.190;5.732;2024-03-08T18:02:05;98050.28;;;11.92;100.00
15670;BME280;18524;45.190;5.732;2024-03-08T18:06:55;98060.47;;;11.95;100.00
15670;BME280;18524;45.190;5.732;2024-03-08T18:11:46;98076.41;;;11.94;100.00
15670;BME280;18524;45.190;5.732;2024-03-08T18:16:36;98092.81;;;11.96;100.00
15670;BME280;18524;45.190;5.732;2024-03-08T18:21:28;98099.03;;;11.61;100.00
15670;BME280;18524;45.190;5.732;2024-03-08T18:26:20;98052.63;;;11.69;100.00
15670;BME280;18524;45.190;5.732;2024-03-08T18:31:10;98059.28;;;11.55;100.00
15670;BME280;18524;45.190;5.732;2024-03-08T18:36:03;98071.31;;;11.40;100.00
15670;BME280;18524;45.190;5.732;2024-03-08T18:40:56;98070.00;;;11.36;100.00
15670;BME280;18524;45.190;5.732;2024-03-08T18:45:48;98065.88;;;11.34;100.00
15670;BME280;18524;45.190;5.732;2024-03-08T18:50:39;98082.53;;;11.50;100.00
15670;BME280;18524;45.190;5.732;2024-03-08T18:55:29;98106.22;;;11.33;100.00
15670;BME280;18524;45.190;5.732;2024-03-08T19:00:21;98118.25;;;11.17;100.00
15670;BME280;18524;45.190;5.732;2024-03-08T19:05:12;98103.19;;;11.02;100.00
15670;BME280;18524;45.190;5.732;2024-03-08T19:10:07;98102.78;;;10.88;100.00
15670;BME280;18524;45.190;5.732;2024-03-08T19:14:57;98067.09;;;10.95;100.00
15670;BME280;18524;45.190;5.732;2024-03-08T19:19:48;98061.19;;;10.76;100.00
15670;BME280;18524;45.190;5.732;2024-03-08T19:24:39;98071.38;;;10.79;100.00
15670;BME280;18524;45.190;5.732;2024-03-08T19:29:29;98045.59;;;10.74;100.00
15670;BME280;18524;45.190;5.732;2024-03-08T19:34:19;98050.47;;;10.69;100.00
15670;BME280;18524;45.190;5.732;2024-03-08T19:39:14;98036.91;;;10.74;98.66
15670;BME280;18524;45.190;5.732;2024-03-08T19:44:06;98031.28;;;10.86;95.45
15670;BME280;18524;45.190;5.732;2024-03-08T19:48:57;98019.56;;;10.99;91.27
15670;BME280;18524;45.190;5.732;2024-03-08T19:53:48;98037.00;;;11.08;90.57
15670;BME280;18524;45.190;5.732;2024-03-08T19:58:40;98012.78;;;10.88;100.00
15670;BME280;18524;45.190;5.732;2024-03-08T20:03:31;98018.19;;;10.86;100.00
15670;BME280;18524;45.190;5.732;2024-03-08T20:08:23;98006.25;;;10.74;100.00
15670;BME280;18524;45.190;5.732;2024-03-08T20:13:18;97987.19;;;10.64;100.00
15670;BME280;18524;45.190;5.732;2024-03-08T20:18:09;97986.41;;;10.46;100.00
15670;BME280;18524;45.190;5.732;2024-03-08T20:22:59;97980.53;;;10.16;100.00
15670;BME280;18524;45.190;5.732;2024-03-08T20:27:55;97974.44;;;9.98;100.00
15670;BME280;18524;45.190;5.732;2024-03-08T20:32:52;97963.97;;;9.98;100.00
15670;BME280;18524;45.190;5.732;2024-03-08T20:37:46;97953.63;;;9.79;100.00
15670;BME280;18524;45.190;5.732;2024-03-08T20:42:38;97940.53;;;9.79;100.00
15670;BME280;18524;45.190;5.732;2024-03-08T20:47:29;97947.72;;;9.77;100.00
15670;BME280;18524;45.190;5.732;2024-03-08T20:52:19;97957.97;;;9.88;100.00
15670;BME280;18524;45.190;5.732;2024-03-08T20:57:11;97973.84;;;9.86;100.00
15670;BME280;18524;45.190;5.732;2024-03-08T21:02:03;97944.28;;;9.94;100.00
15670;BME280;18524;45.190;5.732;2024-03-08T21:06:53;97951.63;;;9.90;100.00
15670;BME280;18524;45.190;5.732;2024-03-08T21:11:44;97959.34;;;10.10;100.00
15670;BME280;18524;45.190;5.732;2024-03-08T21:16:34;97956.56;;;10.11;100.00
15670;BME280;18524;45.190;5.732;2024-03-08T21:21:25;97945.44;;;10.09;100.00
15670;BME280;18524;45.190;5.732;2024-03-08T21:26:16;97956.22;;;10.06;100.00
15670;BME280;18524;45.190;5.732;2024-03-08T21:31:08;97942.72;;;9.83;100.00
15670;BME280;18524;45.190;5.732;2024-03-08T21:35:58;97946.38;;;9.73;100.00
15670;BME280;18524;45.190;5.732;2024-03-08T21:40:49;97933.75;;;9.58;100.00
15670;BME280;18524;45.190;5.732;2024-03-08T21:45:39;97936.28;;;9.32;100.00
15670;BME280;18524;45.190;5.732;2024-03-08T21:50:31;97953.75;;;9.32;100.00
15670;BME280;18524;45.190;5.732;2024-03-08T21:55:23;97949.28;;;9.15;100.00
15670;BME280;18524;45.190;5.732;2024-03-08T22:00:14;97943.91;;;9.16;100.00
15670;BME280;18524;45.190;5.732;2024-03-08T22:05:07;97955.19;;;9.17;100.00
15670;BME280;18524;45.190;5.732;2024-03-08T22:10:03;97964.03;;;9.06;100.00
15670;BME280;18524;45.190;5.732;2024-03-08T22:15:00;97960.94;;;8.93;100.00
15670;BME280;18524;45.190;5.732;2024-03-08T22:19:51;97967.78;;;9.03;100.00
15670;BME280;18524;45.190;5.732;2024-03-08T22:24:42;97967.59;;;9.15;100.00
15670;BME280;18524;45.190;5.732;2024-03-08T22:29:40;97948.25;;;9.25;100.00
15670;BME280;18524;45.190;5.732;2024-03-08T22:34:30;97961.00;;;9.11;100.00
15670;BME280;18524;45.190;5.732;2024-03-08T22:39:20;97945.59;;;9.07;100.00
15670;BME280;18524;45.190;5.732;2024-03-08T22:44:13;97954.66;;;9.13;100.00
15670;BME280;18524;45.190;5.732;2024-03-08T22:49:04;97956.44;;;9.13;100.00
15670;BME280;18524;45.190;5.732;2024-03-08T22:53:54;97967.81;;;9.21;100.00
15670;BME280;18524;45.190;5.732;2024-03-08T22:58:45;97962.34;;;9.15;100.00
15670;BME280;18524;45.190;5.732;2024-03-08T23:03:35;97957.41;;;9.12;100.00
15670;BME280;18524;45.190;5.732;2024-03-08T23:08:26;97948.00;;;9.19;100.00
15670;BME280;18524;45.190;5.732;2024-03-08T23:13:19;97941.72;;;9.12;100.00
15670;BME280;18524;45.190;5.732;2024-03-08T23:18:10;97945.63;;;8.98;100.00
15670;BME280;18524;45.190;5.732;2024-03-08T23:23:00;97929.97;;;8.88;100.00
15670;BME280;18524;45.190;5.732;2024-03-08T23:27:57;97916.88;;;8.88;100.00
15670;BME280;18524;45.190;5.732;2024-03-08T23:32:47;97936.97;;;8.88;100.00
15670;BME280;18524;45.190;5.732;2024-03-08T23:37:38;97930.97;;;8.77;100.00
15670;BME280;18524;45.190;5.732;2024-03-08T23:42:33;97925.59;;;8.79;100.00
15670;BME280;18524;45.190;5.732;2024-03-08T23:47:23;97926.22;;;8.91;100.00
15670;BME280;18524;45.190;5.732;2024-03-08T23:52:13;97937.25;;;8.94;100.00
15670;BME280;18524;45.190;5.732;2024-03-08T23:57:04;97930.38;;;8.84;100.00
